createdAt,value
2023-05-19T00:01:24.589Z,52.24
2023-05-19T00:03:50.952Z,52.16
2023-05-19T00:06:17.362Z,51.89
2023-05-19T00:08:43.764Z,52.02
2023-05-19T00:11:10.108Z,51.88
2023-05-19T00:13:36.480Z,51.76
2023-05-19T00:16:03.046Z,51.37
2023-05-19T00:18:29.418Z,51.59
2023-05-19T00:20:55.805Z,51.86
2023-05-19T00:23:22.174Z,51.79
2023-05-19T00:25:48.551Z,51.98
2023-05-19T00:28:14.901Z,52.01
2023-05-19T00:30:41.261Z,52.06
2023-05-19T00:33:07.816Z,51.85
2023-05-19T00:35:34.340Z,51.85
2023-05-19T00:38:00.714Z,51.80
2023-05-19T00:40:27.098Z,52.33
2023-05-19T00:42:53.471Z,52.58
2023-05-19T00:45:19.848Z,52.83
2023-05-19T00:47:46.254Z,52.66
2023-05-19T00:50:12.634Z,52.43
2023-05-19T00:52:39.014Z,53.50
2023-05-19T00:55:05.381Z,53.05
2023-05-19T00:57:31.725Z,53.12
2023-05-19T00:59:58.102Z,52.75
2023-05-19T01:02:24.563Z,52.84
2023-05-19T01:04:51.061Z,52.54
2023-05-19T01:07:17.417Z,52.78
2023-05-19T01:09:43.816Z,52.75
2023-05-19T01:12:10.186Z,52.91
2023-05-19T01:14:36.581Z,52.78
2023-05-19T01:17:02.942Z,52.64
2023-05-19T01:19:29.282Z,52.83
2023-05-19T01:21:55.629Z,53.02
2023-05-19T01:24:21.977Z,52.77
2023-05-19T01:26:48.331Z,53.36
2023-05-19T01:29:14.692Z,53.09
2023-05-19T01:31:41.114Z,53.16
2023-05-19T01:34:07.523Z,53.21
2023-05-19T01:36:33.926Z,53.48
2023-05-19T01:39:00.284Z,53.45
2023-05-19T01:41:26.645Z,53.32
2023-05-19T01:43:53.015Z,53.20
2023-05-19T01:46:19.375Z,53.88
2023-05-19T01:48:45.753Z,53.40
2023-05-19T01:51:12.125Z,53.03
2023-05-19T01:53:38.479Z,53.29
2023-05-19T01:56:04.849Z,53.28
2023-05-19T01:58:31.246Z,53.13
2023-05-19T02:00:57.630Z,53.35
2023-05-19T02:03:24.025Z,53.25
2023-05-19T02:05:50.405Z,53.76
2023-05-19T02:08:16.756Z,53.12
2023-05-19T02:10:43.099Z,53.08
2023-05-19T02:13:09.441Z,53.60
2023-05-19T02:15:35.833Z,53.76
2023-05-19T02:18:02.226Z,53.36
2023-05-19T02:20:28.616Z,53.77
2023-05-19T02:22:55.004Z,54.06
2023-05-19T02:25:21.377Z,54.40
2023-05-19T02:27:47.778Z,54.34
2023-05-19T02:30:14.149Z,54.92
2023-05-19T02:32:40.598Z,54.19
2023-05-19T02:35:07.020Z,54.43
2023-05-19T02:37:33.405Z,54.66
2023-05-19T02:39:59.802Z,54.64
2023-05-19T02:42:26.241Z,54.69
2023-05-19T02:44:52.615Z,54.36
2023-05-19T02:47:18.974Z,54.98
2023-05-19T02:49:45.335Z,55.05
2023-05-19T02:52:11.684Z,54.79
2023-05-19T02:54:38.065Z,55.42
2023-05-19T02:57:04.443Z,54.89
2023-05-19T02:59:30.821Z,54.47
2023-05-19T03:01:57.198Z,54.85
2023-05-19T03:04:23.577Z,54.92
2023-05-19T03:06:49.934Z,55.30
2023-05-19T03:09:16.308Z,54.66
2023-05-19T03:11:42.677Z,54.99
2023-05-19T03:14:09.043Z,55.10
2023-05-19T03:16:35.496Z,55.01
2023-05-19T03:19:01.977Z,54.66
2023-05-19T03:21:28.351Z,54.80
2023-05-19T03:23:54.713Z,55.17
2023-05-19T03:26:21.070Z,55.26
2023-05-19T03:28:47.426Z,55.59
2023-05-19T03:31:13.778Z,55.15
2023-05-19T03:33:40.174Z,54.82
2023-05-19T03:36:06.552Z,55.27
2023-05-19T03:38:32.903Z,55.23
2023-05-19T03:40:59.258Z,55.06
2023-05-19T03:43:25.601Z,54.94
2023-05-19T03:45:51.963Z,55.37
2023-05-19T03:48:21.049Z,55.09
2023-05-19T03:50:47.692Z,55.83
2023-05-19T03:53:14.055Z,55.33
2023-05-19T03:55:40.413Z,55.54
2023-05-19T03:58:06.760Z,55.68
2023-05-19T04:00:33.437Z,54.92
2023-05-19T04:03:00.266Z,55.66
2023-05-19T04:05:26.908Z,55.73
2023-05-19T04:07:53.286Z,55.70
2023-05-19T04:10:19.659Z,55.90
2023-05-19T04:12:46.003Z,56.54
2023-05-19T04:15:12.378Z,55.95
2023-05-19T04:17:38.796Z,55.64
2023-05-19T04:20:05.192Z,56.18
2023-05-19T04:22:31.550Z,56.76
2023-05-19T04:24:57.921Z,55.88
2023-05-19T04:27:24.297Z,55.89
2023-05-19T04:29:50.665Z,55.93
2023-05-19T04:32:17.017Z,55.63
2023-05-19T04:34:44.702Z,55.68
2023-05-19T04:37:15.981Z,56.14
2023-05-19T04:39:42.314Z,56.13
2023-05-19T04:42:08.676Z,56.01
2023-05-19T04:44:35.053Z,55.97
2023-05-19T04:47:01.522Z,56.14
2023-05-19T04:49:27.991Z,56.53
2023-05-19T04:51:55.901Z,56.07
2023-05-19T04:54:22.398Z,56.55
2023-05-19T04:56:48.774Z,56.45
2023-05-19T04:59:15.110Z,56.55
2023-05-19T05:01:41.499Z,56.50
2023-05-19T05:04:07.886Z,56.74
2023-05-19T05:06:34.302Z,57.25
2023-05-19T05:09:00.677Z,56.81
2023-05-19T05:11:27.069Z,56.32
2023-05-19T05:13:53.441Z,56.39
2023-05-19T05:16:19.867Z,56.31
2023-05-19T05:18:46.304Z,56.94
2023-05-19T05:21:12.678Z,56.83
2023-05-19T05:23:39.047Z,56.92
2023-05-19T05:26:05.421Z,57.08
2023-05-19T05:28:31.769Z,56.80
2023-05-19T05:30:58.121Z,57.24
2023-05-19T05:33:24.600Z,57.35
2023-05-19T05:35:51.069Z,56.93
2023-05-19T05:38:17.439Z,57.09
2023-05-19T05:40:43.820Z,56.95
2023-05-19T05:43:10.211Z,56.77
2023-05-19T05:45:36.612Z,56.39
2023-05-19T05:48:03.022Z,56.44
2023-05-19T05:50:29.409Z,56.74
2023-05-19T05:52:55.774Z,56.13
2023-05-19T05:55:22.150Z,56.40
2023-05-19T05:57:48.523Z,56.19
2023-05-19T06:00:14.917Z,56.04
2023-05-19T06:02:41.328Z,55.54
2023-05-19T06:05:07.825Z,55.99
2023-05-19T06:07:34.238Z,55.44
2023-05-19T06:10:00.653Z,55.56
2023-05-19T06:12:27.051Z,55.78
2023-05-19T06:14:53.441Z,55.36
2023-05-19T06:17:19.815Z,55.86
2023-05-19T06:19:46.193Z,55.36
2023-05-19T06:22:12.557Z,55.57
2023-05-19T06:24:39.616Z,54.92
2023-05-19T06:27:06.117Z,54.98
2023-05-19T06:29:32.501Z,55.01
2023-05-19T06:31:58.876Z,54.97
2023-05-19T06:34:25.316Z,54.74
2023-05-19T06:36:51.691Z,54.95
2023-05-19T06:39:19.135Z,54.97
2023-05-19T06:41:45.508Z,54.96
2023-05-19T06:44:11.864Z,55.82
2023-05-19T06:46:38.319Z,55.80
2023-05-19T06:49:04.704Z,55.84
2023-05-19T06:51:31.075Z,55.00
2023-05-19T06:53:57.443Z,54.98
2023-05-19T06:56:23.814Z,55.45
2023-05-19T06:58:50.181Z,56.01
2023-05-19T07:01:16.650Z,55.84
2023-05-19T07:03:43.134Z,55.93
2023-05-19T07:06:09.648Z,55.82
2023-05-19T07:08:36.035Z,55.18
2023-05-19T07:11:02.418Z,54.95
2023-05-19T07:13:28.794Z,54.64
2023-05-19T07:15:55.151Z,55.01
2023-05-19T07:18:21.516Z,55.56
2023-05-19T07:20:47.875Z,54.41
2023-05-19T07:23:16.658Z,54.01
2023-05-19T07:25:43.686Z,54.55
2023-05-19T07:28:10.063Z,54.85
2023-05-19T07:30:36.430Z,54.20
2023-05-19T07:33:02.954Z,54.75
2023-05-19T07:35:29.404Z,54.38
2023-05-19T07:37:55.748Z,53.86
2023-05-19T07:40:22.138Z,53.98
2023-05-19T07:42:48.514Z,53.97
2023-05-19T07:45:14.907Z,53.20
2023-05-19T07:47:41.323Z,53.09
2023-05-19T07:50:07.750Z,53.09
2023-05-19T07:52:34.146Z,53.52
2023-05-19T07:55:00.533Z,53.48
2023-05-19T07:57:26.888Z,53.34
2023-05-19T07:59:53.262Z,52.94
2023-05-19T08:02:19.693Z,52.42
2023-05-19T08:04:46.140Z,52.34
2023-05-19T08:07:12.557Z,52.32
2023-05-19T08:09:38.979Z,52.21
2023-05-19T08:12:05.355Z,51.78
2023-05-19T08:14:31.728Z,51.63
2023-05-19T08:16:58.082Z,51.05
2023-05-19T08:19:24.517Z,51.07
2023-05-19T08:21:50.906Z,51.46
2023-05-19T08:24:17.275Z,51.63
2023-05-19T08:26:43.650Z,51.39
2023-05-19T08:29:09.997Z,51.33
2023-05-19T08:31:36.434Z,51.36
2023-05-19T08:34:02.817Z,51.50
2023-05-19T08:36:29.189Z,51.22
2023-05-19T08:38:55.556Z,51.40
2023-05-19T08:41:21.904Z,51.28
2023-05-19T08:43:48.263Z,51.26
2023-05-19T08:46:14.640Z,51.14
2023-05-19T08:48:41.036Z,50.83
2023-05-19T08:51:07.415Z,50.92
2023-05-19T08:53:34.728Z,51.01
2023-05-19T08:56:01.278Z,50.22
2023-05-19T08:58:28.726Z,50.27
2023-05-19T09:00:55.319Z,50.24
2023-05-19T09:03:23.962Z,50.19
2023-05-19T09:05:50.682Z,50.84
2023-05-19T09:08:17.062Z,49.63
2023-05-19T09:10:43.437Z,49.88
2023-05-19T09:13:09.808Z,50.09
2023-05-19T09:15:36.278Z,49.77
2023-05-19T09:18:02.988Z,50.10
2023-05-19T09:20:29.464Z,49.64
2023-05-19T09:22:55.838Z,50.12
2023-05-19T09:25:22.195Z,49.59
2023-05-19T09:27:48.554Z,49.61
2023-05-19T09:30:14.934Z,49.53
2023-05-19T09:32:41.374Z,49.63
2023-05-19T09:35:07.785Z,49.96
2023-05-19T09:37:34.167Z,49.76
2023-05-19T09:40:00.552Z,50.01
2023-05-19T09:42:26.941Z,49.76
2023-05-19T09:44:53.480Z,49.74
2023-05-19T09:47:19.830Z,49.08
2023-05-19T09:49:46.187Z,48.42
2023-05-19T09:52:12.755Z,48.67
2023-05-19T09:54:39.145Z,48.43
2023-05-19T09:57:07.727Z,48.52
2023-05-19T09:59:34.605Z,49.03
2023-05-19T10:02:01.030Z,48.20
2023-05-19T10:04:27.461Z,48.35
2023-05-19T10:06:53.986Z,47.39
2023-05-19T10:09:20.345Z,48.15
2023-05-19T10:11:46.716Z,47.61
2023-05-19T10:14:13.080Z,47.65
2023-05-19T10:16:39.544Z,47.74
2023-05-19T10:19:06.054Z,47.18
2023-05-19T10:21:32.424Z,47.78
2023-05-19T10:23:58.773Z,47.54
2023-05-19T10:26:25.138Z,47.60
2023-05-19T10:28:51.489Z,46.80
2023-05-19T10:31:17.915Z,46.65
2023-05-19T10:33:44.427Z,47.71
2023-05-19T10:36:10.809Z,47.32
2023-05-19T10:38:37.214Z,47.29
2023-05-19T10:41:03.624Z,45.84
2023-05-19T10:43:30.016Z,45.65
2023-05-19T10:45:56.403Z,46.05
2023-05-19T10:48:22.808Z,45.66
2023-05-19T10:50:49.160Z,46.59
2023-05-19T10:53:15.538Z,46.57
2023-05-19T10:55:41.924Z,46.30
2023-05-19T10:58:08.272Z,47.14
2023-05-19T11:00:34.615Z,46.64
2023-05-19T11:03:00.982Z,46.77
2023-05-19T11:05:27.388Z,46.53
2023-05-19T11:07:53.761Z,46.63
2023-05-19T11:10:21.556Z,46.53
2023-05-19T11:12:48.009Z,46.36
2023-05-19T11:15:14.390Z,47.25
2023-05-19T11:17:40.750Z,45.08
2023-05-19T11:20:07.110Z,45.23
2023-05-19T11:22:33.459Z,45.62
2023-05-19T11:24:59.807Z,45.19
2023-05-19T11:27:26.177Z,44.84
2023-05-19T11:29:52.528Z,43.36
2023-05-19T11:32:18.909Z,43.25
2023-05-19T11:34:45.300Z,42.63
2023-05-19T11:37:11.669Z,42.66
2023-05-19T11:39:38.013Z,43.06
2023-05-19T11:42:04.403Z,42.18
2023-05-19T11:44:30.772Z,42.35
2023-05-19T11:46:57.231Z,43.32
2023-05-19T11:49:23.695Z,42.29
2023-05-19T11:51:50.073Z,43.48
2023-05-19T11:54:16.456Z,42.66
2023-05-19T11:56:42.834Z,43.06
2023-05-19T11:59:09.209Z,42.53
2023-05-19T12:01:35.609Z,43.36
2023-05-19T12:04:02.007Z,42.67
2023-05-19T12:06:28.430Z,42.27
2023-05-19T12:08:54.849Z,43.68
2023-05-19T12:11:23.172Z,43.88
2023-05-19T12:13:49.561Z,43.31
2023-05-19T12:16:20.934Z,43.45
2023-05-19T12:18:47.345Z,43.66
2023-05-19T12:21:13.757Z,42.35
2023-05-19T12:23:40.113Z,43.50
2023-05-19T12:26:06.480Z,42.96
2023-05-19T12:28:32.833Z,43.58
2023-05-19T12:30:59.185Z,43.72
2023-05-19T12:33:25.588Z,43.46
2023-05-19T12:35:51.994Z,43.40
2023-05-19T12:38:18.391Z,43.79
2023-05-19T12:40:44.766Z,43.96
2023-05-19T12:43:11.141Z,43.26
2023-05-19T12:45:37.625Z,44.52
2023-05-19T12:48:04.176Z,43.17
2023-05-19T12:50:30.815Z,41.29
2023-05-19T12:52:57.345Z,41.56
2023-05-19T12:55:23.729Z,41.68
2023-05-19T12:57:50.632Z,40.87
2023-05-19T13:00:17.161Z,40.37
2023-05-19T13:02:43.632Z,40.09
2023-05-19T13:05:10.059Z,41.20
2023-05-19T13:07:36.476Z,42.09
2023-05-19T13:10:02.858Z,41.88
2023-05-19T13:12:29.266Z,41.07
2023-05-19T13:14:55.853Z,40.47
2023-05-19T13:17:22.304Z,42.05
2023-05-19T13:19:48.705Z,40.87
2023-05-19T13:22:15.077Z,40.39
2023-05-19T13:24:41.451Z,41.54
2023-05-19T13:27:07.831Z,42.13
2023-05-19T13:29:34.233Z,42.27
2023-05-19T13:32:01.501Z,41.28
2023-05-19T13:34:28.090Z,41.19
2023-05-19T13:36:54.479Z,42.06
2023-05-19T13:39:20.930Z,43.12
2023-05-19T13:41:47.301Z,43.02
2023-05-19T13:44:13.674Z,42.30
2023-05-19T13:46:45.162Z,41.87
2023-05-19T13:49:12.849Z,41.45
2023-05-19T13:51:39.206Z,40.88
2023-05-19T13:54:05.601Z,43.00
2023-05-19T13:56:32.080Z,42.57
2023-05-19T13:58:58.479Z,42.81
2023-05-19T14:01:24.871Z,42.18
2023-05-19T14:03:51.448Z,43.14
2023-05-19T14:06:18.026Z,41.75
2023-05-19T14:08:44.375Z,42.31
2023-05-19T14:11:10.738Z,43.79
2023-05-19T14:13:39.806Z,42.40
2023-05-19T14:16:09.119Z,43.41
2023-05-19T14:18:35.549Z,42.46
2023-05-19T14:21:01.909Z,42.31
2023-05-19T14:23:28.309Z,43.23
2023-05-19T14:25:54.666Z,42.52
2023-05-19T14:28:21.053Z,42.52
2023-05-19T14:30:47.965Z,42.80
2023-05-19T14:33:14.350Z,44.22
2023-05-19T14:35:40.736Z,43.58
2023-05-19T14:38:07.111Z,44.15
2023-05-19T14:40:33.615Z,44.07
2023-05-19T14:43:00.195Z,44.49
2023-05-19T14:45:26.587Z,43.84
2023-05-19T14:47:53.049Z,43.66
2023-05-19T14:50:19.526Z,44.40
2023-05-19T14:52:45.898Z,43.99
2023-05-19T14:55:12.305Z,44.76
2023-05-19T14:57:38.688Z,44.38
2023-05-19T15:00:05.097Z,44.44
2023-05-19T15:02:31.481Z,44.50
2023-05-19T15:04:57.879Z,43.81
2023-05-19T15:07:24.283Z,44.63
2023-05-19T15:09:50.651Z,44.08
2023-05-19T15:12:17.028Z,44.08
2023-05-19T15:14:43.408Z,43.90
2023-05-19T15:17:10.002Z,44.36
2023-05-19T15:19:36.509Z,44.53
2023-05-19T15:22:02.912Z,45.08
2023-05-19T15:24:29.276Z,45.16
2023-05-19T15:26:55.654Z,45.18
2023-05-19T15:29:22.010Z,44.95
2023-05-19T15:31:48.477Z,45.09
2023-05-19T15:34:14.874Z,45.05
2023-05-19T15:36:41.253Z,44.81
2023-05-19T15:39:07.619Z,45.57
2023-05-19T15:41:33.976Z,45.58
2023-05-19T15:44:00.625Z,46.24
2023-05-19T15:46:27.229Z,46.25
2023-05-19T15:48:53.681Z,46.21
2023-05-19T15:51:20.061Z,46.87
2023-05-19T15:53:46.449Z,46.76
2023-05-19T15:56:12.915Z,46.94
2023-05-19T15:58:39.278Z,47.14
2023-05-19T16:01:05.633Z,47.37
2023-05-19T16:03:32.046Z,47.24
2023-05-19T16:05:58.550Z,47.59
2023-05-19T16:08:25.036Z,47.44
2023-05-19T16:10:51.441Z,47.42
2023-05-19T16:13:17.819Z,47.33
2023-05-19T16:15:44.199Z,47.58
2023-05-19T16:18:10.609Z,48.00
2023-05-19T16:20:37.000Z,47.56
2023-05-19T16:23:03.359Z,47.50
2023-05-19T16:25:29.721Z,47.60
2023-05-19T16:27:56.074Z,47.71
2023-05-19T16:30:22.421Z,47.30
2023-05-19T16:32:48.808Z,47.67
2023-05-19T16:35:15.216Z,47.85
2023-05-19T16:37:41.616Z,47.87
2023-05-19T16:40:07.976Z,48.08
2023-05-19T16:42:34.322Z,47.93
2023-05-19T16:45:00.664Z,48.25
2023-05-19T16:47:27.085Z,48.47
2023-05-19T16:49:53.486Z,48.05
2023-05-19T16:52:19.904Z,47.89
2023-05-19T16:54:46.260Z,48.21
2023-05-19T16:57:12.618Z,48.40
2023-05-19T16:59:38.973Z,48.59
2023-05-19T17:02:05.372Z,48.61
2023-05-19T17:04:31.745Z,48.23
2023-05-19T17:06:58.146Z,48.01
2023-05-19T17:09:24.508Z,48.22
2023-05-19T17:11:50.881Z,48.37
2023-05-19T17:14:17.244Z,48.59
2023-05-19T17:16:43.645Z,48.66
2023-05-19T17:19:10.199Z,49.17
2023-05-19T17:21:36.594Z,48.93
2023-05-19T17:24:02.950Z,48.58
2023-05-19T17:26:29.309Z,48.72
2023-05-19T17:28:55.696Z,48.33
2023-05-19T17:31:22.078Z,49.20
2023-05-19T17:33:48.460Z,48.92
2023-05-19T17:36:14.821Z,49.43
2023-05-19T17:38:41.183Z,49.68
2023-05-19T17:41:07.534Z,49.65
2023-05-19T17:43:33.896Z,49.82
2023-05-19T17:46:01.230Z,49.89
2023-05-19T17:48:27.781Z,49.95
2023-05-19T17:50:54.149Z,50.17
2023-05-19T17:53:20.536Z,50.07
2023-05-19T17:55:46.927Z,49.36
2023-05-19T17:58:13.302Z,50.25
2023-05-19T18:00:39.664Z,49.96
2023-05-19T18:03:06.231Z,50.28
2023-05-19T18:05:32.713Z,50.01
2023-05-19T18:07:59.076Z,50.10
2023-05-19T18:10:25.448Z,50.35
2023-05-19T18:12:51.831Z,50.59
2023-05-19T18:15:18.196Z,50.50
2023-05-19T18:17:44.596Z,50.84
2023-05-19T18:20:11.036Z,50.29
2023-05-19T18:22:37.390Z,50.73
2023-05-19T18:25:03.764Z,50.58
2023-05-19T18:27:30.144Z,50.54
2023-05-19T18:29:56.500Z,51.07
2023-05-19T18:32:22.917Z,51.03
2023-05-19T18:34:49.332Z,50.63
2023-05-19T18:37:15.689Z,50.84
2023-05-19T18:39:42.035Z,50.94
2023-05-19T18:42:08.403Z,51.02
2023-05-19T18:44:34.760Z,51.05
2023-05-19T18:47:01.126Z,51.19
2023-05-19T18:49:27.525Z,50.96
2023-05-19T18:51:53.889Z,51.30
2023-05-19T18:54:20.264Z,51.59
2023-05-19T18:56:46.619Z,51.76
2023-05-19T18:59:12.971Z,52.03
2023-05-19T19:01:39.447Z,51.78
2023-05-19T19:04:06.002Z,51.90
2023-05-19T19:06:32.420Z,51.78
2023-05-19T19:08:58.770Z,52.51
2023-05-19T19:11:25.118Z,52.17
2023-05-19T19:13:51.536Z,52.08
2023-05-19T19:16:18.061Z,52.29
2023-05-19T19:18:44.621Z,52.53
2023-05-19T19:21:11.127Z,52.82
2023-05-19T19:23:37.500Z,52.77
2023-05-19T19:26:03.860Z,53.11
2023-05-19T19:28:30.213Z,52.97
2023-05-19T19:30:56.573Z,53.56
2023-05-19T19:33:22.924Z,53.08
2023-05-19T19:35:49.289Z,52.95
2023-05-19T19:38:15.690Z,52.99
2023-05-19T19:40:42.050Z,53.30
2023-05-19T19:43:08.414Z,53.49
2023-05-19T19:45:34.915Z,53.58
2023-05-19T19:48:01.362Z,53.56
2023-05-19T19:50:27.774Z,53.56
2023-05-19T19:52:54.139Z,53.72
2023-05-19T19:55:20.542Z,53.73
2023-05-19T19:57:46.912Z,53.77
2023-05-19T20:00:13.282Z,53.79
2023-05-19T20:02:48.401Z,53.82
2023-05-19T20:05:25.953Z,53.99
2023-05-19T20:07:52.313Z,54.33
2023-05-19T20:10:18.657Z,53.87
2023-05-19T20:12:45.024Z,53.97
2023-05-19T20:15:11.518Z,54.46
2023-05-19T20:17:37.903Z,54.75
2023-05-19T20:20:04.295Z,55.31
2023-05-19T20:22:30.641Z,55.11
2023-05-19T20:24:57.020Z,54.96
2023-05-19T20:27:23.383Z,54.99
2023-05-19T20:29:49.738Z,54.57
2023-05-19T20:32:16.108Z,54.68
2023-05-19T20:34:42.509Z,54.36
2023-05-19T20:37:08.895Z,54.69
2023-05-19T20:39:35.257Z,54.66
2023-05-19T20:42:01.615Z,54.53
2023-05-19T20:44:27.967Z,54.54
2023-05-19T20:46:54.317Z,54.37
2023-05-19T20:49:20.685Z,54.18
2023-05-19T20:51:47.065Z,54.37
2023-05-19T20:54:13.456Z,54.48
2023-05-19T20:56:39.849Z,54.29
2023-05-19T20:59:06.271Z,54.07
2023-05-19T21:01:32.684Z,54.28
2023-05-19T21:03:59.061Z,54.28
2023-05-19T21:06:25.428Z,54.17
2023-05-19T21:08:51.802Z,54.22
2023-05-19T21:11:18.176Z,54.22
2023-05-19T21:13:44.527Z,54.21
2023-05-19T21:16:10.878Z,54.17
2023-05-19T21:18:37.276Z,54.24
2023-05-19T21:21:03.645Z,54.36
2023-05-19T21:23:30.032Z,54.23
2023-05-19T21:25:56.378Z,54.34
2023-05-19T21:28:22.734Z,54.45
2023-05-19T21:30:49.179Z,54.81
2023-05-19T21:33:15.753Z,54.40
2023-05-19T21:35:42.193Z,54.35
2023-05-19T21:38:22.019Z,54.44
2023-05-19T21:40:49.542Z,55.04
2023-05-19T21:43:15.908Z,55.37
2023-05-19T21:45:42.270Z,54.56
2023-05-19T21:48:08.707Z,55.18
2023-05-19T21:50:35.180Z,55.34
2023-05-19T21:53:01.592Z,55.29
2023-05-19T21:55:27.953Z,55.44
2023-05-19T21:57:54.329Z,55.62
2023-05-19T22:00:20.691Z,55.42
2023-05-19T22:02:47.191Z,55.33
2023-05-19T22:05:13.686Z,55.31
2023-05-19T22:07:40.040Z,55.37
2023-05-19T22:10:06.404Z,55.85
2023-05-19T22:12:32.798Z,55.36
2023-05-19T22:14:59.174Z,55.52
2023-05-19T22:17:25.546Z,55.65
2023-05-19T22:19:51.918Z,55.43
2023-05-19T22:22:18.294Z,55.24
2023-05-19T22:24:44.653Z,55.59
2023-05-19T22:27:11.015Z,55.84
2023-05-19T22:29:37.393Z,55.66
2023-05-19T22:32:03.752Z,55.67
2023-05-19T22:34:30.218Z,55.61
2023-05-19T22:36:56.625Z,55.53
2023-05-19T22:39:22.981Z,55.82
2023-05-19T22:41:49.331Z,56.46
2023-05-19T22:44:15.689Z,56.30
2023-05-19T22:46:42.113Z,56.11
2023-05-19T22:49:08.489Z,56.35
2023-05-19T22:51:34.847Z,56.41
2023-05-19T22:54:01.222Z,56.28
2023-05-19T22:56:27.583Z,56.10
2023-05-19T22:58:53.991Z,56.34
2023-05-19T23:01:20.449Z,55.91
2023-05-19T23:03:46.918Z,55.54
2023-05-19T23:06:13.320Z,55.87
2023-05-19T23:08:39.678Z,56.32
2023-05-19T23:11:06.061Z,56.19
2023-05-19T23:13:32.416Z,55.90
2023-05-19T23:15:58.792Z,55.79
2023-05-19T23:18:25.198Z,55.95
2023-05-19T23:20:51.606Z,55.71
2023-05-19T23:23:17.981Z,56.13
2023-05-19T23:25:44.347Z,56.21
2023-05-19T23:28:10.722Z,55.78
2023-05-19T23:30:37.095Z,56.14
2023-05-19T23:33:03.529Z,55.58
2023-05-19T23:35:29.924Z,55.60
2023-05-19T23:37:56.286Z,55.68
2023-05-19T23:40:22.703Z,55.70
2023-05-19T23:42:49.061Z,55.96
2023-05-19T23:45:15.472Z,56.57
2023-05-19T23:47:42.168Z,55.86
2023-05-19T23:50:08.617Z,56.19
2023-05-19T23:52:34.990Z,56.15
2023-05-19T23:55:01.446Z,56.20
2023-05-19T23:57:27.806Z,56.13
2023-05-19T23:59:54.221Z,55.78
